createdAt,value
2022-10-20T00:01:14.923Z,99.90
2022-10-20T00:03:42.706Z,99.90
2022-10-20T00:06:15.495Z,99.90
2022-10-20T00:08:44.327Z,99.90
2022-10-20T00:11:14.497Z,99.90
2022-10-20T00:13:43.332Z,99.90
2022-10-20T00:16:12.108Z,99.90
2022-10-20T00:18:40.041Z,99.90
2022-10-20T00:21:09.665Z,99.90
2022-10-20T00:23:37.084Z,99.90
2022-10-20T00:26:07.085Z,99.90
2022-10-20T00:28:35.128Z,99.90
2022-10-20T00:31:03.886Z,99.90
2022-10-20T00:33:31.906Z,99.90
2022-10-20T00:36:04.290Z,99.90
2022-10-20T00:38:32.382Z,99.90
2022-10-20T00:41:06.112Z,99.90
2022-10-20T00:43:54.318Z,99.90
2022-10-20T00:46:26.894Z,99.90
2022-10-20T00:48:59.126Z,99.90
2022-10-20T00:51:28.922Z,99.90
2022-10-20T00:54:08.540Z,99.90
2022-10-20T00:56:39.600Z,99.90
2022-10-20T00:59:07.613Z,99.90
2022-10-20T01:01:35.187Z,99.90
2022-10-20T01:04:02.920Z,99.90
2022-10-20T01:06:30.513Z,99.90
2022-10-20T01:08:58.559Z,99.90
2022-10-20T01:11:50.056Z,99.90
2022-10-20T01:14:34.333Z,99.90
2022-10-20T01:17:52.138Z,99.90
2022-10-20T01:20:38.039Z,99.90
2022-10-20T01:23:19.962Z,99.90
2022-10-20T01:26:09.141Z,99.90
2022-10-20T01:28:42.416Z,99.90
2022-10-20T01:31:30.107Z,99.90
2022-10-20T01:34:26.250Z,99.90
2022-10-20T01:37:10.608Z,99.90
2022-10-20T01:39:49.534Z,99.90
2022-10-20T01:42:22.571Z,99.90
2022-10-20T01:44:58.259Z,99.90
2022-10-20T01:47:28.491Z,99.90
2022-10-20T01:49:57.605Z,99.90
2022-10-20T01:52:27.453Z,99.90
2022-10-20T01:54:54.909Z,99.90
2022-10-20T01:57:46.328Z,99.90
2022-10-20T02:00:18.070Z,99.90
2022-10-20T02:03:36.162Z,99.90
2022-10-20T02:06:22.331Z,99.90
2022-10-20T02:09:03.333Z,99.90
2022-10-20T02:11:36.991Z,99.90
2022-10-20T02:14:06.753Z,99.90
2022-10-20T02:16:39.568Z,99.90
2022-10-20T02:19:08.954Z,99.90
2022-10-20T02:21:37.122Z,99.90
2022-10-20T02:24:07.877Z,99.90
2022-10-20T02:26:38.657Z,99.90
2022-10-20T02:29:15.920Z,99.90
2022-10-20T02:31:44.959Z,99.90
2022-10-20T02:34:12.916Z,99.90
2022-10-20T02:36:43.156Z,99.90
2022-10-20T02:39:10.902Z,99.90
2022-10-20T02:41:38.660Z,99.90
2022-10-20T02:44:06.062Z,99.90
2022-10-20T02:46:33.485Z,99.90
2022-10-20T02:49:00.936Z,99.90
2022-10-20T02:51:28.364Z,99.90
2022-10-20T02:53:55.819Z,99.90
2022-10-20T02:56:25.401Z,99.90
2022-10-20T02:58:54.984Z,99.90
2022-10-20T03:01:22.520Z,99.90
2022-10-20T03:03:49.937Z,99.90
2022-10-20T03:06:17.669Z,99.90
2022-10-20T03:08:45.183Z,99.90
2022-10-20T03:11:12.559Z,99.90
2022-10-20T03:13:39.936Z,99.90
2022-10-20T03:16:07.596Z,99.90
2022-10-20T03:18:34.975Z,99.90
2022-10-20T03:21:02.396Z,99.90
2022-10-20T03:23:29.790Z,99.90
2022-10-20T03:26:04.902Z,99.90
2022-10-20T03:28:32.707Z,99.90
2022-10-20T03:31:00.190Z,99.90
2022-10-20T03:33:27.646Z,99.90
2022-10-20T03:35:55.024Z,99.90
2022-10-20T03:38:22.932Z,99.90
2022-10-20T03:40:50.492Z,99.90
2022-10-20T03:43:18.032Z,99.90
2022-10-20T03:45:45.482Z,99.90
2022-10-20T03:48:12.920Z,99.90
2022-10-20T03:50:41.145Z,99.90
2022-10-20T03:53:12.303Z,99.90
2022-10-20T03:55:39.712Z,99.90
2022-10-20T03:58:07.127Z,99.90
2022-10-20T04:00:34.570Z,99.90
2022-10-20T04:03:01.920Z,99.90
2022-10-20T04:05:29.352Z,99.90
2022-10-20T04:07:56.795Z,99.90
2022-10-20T04:10:24.264Z,99.90
2022-10-20T04:12:51.679Z,99.90
2022-10-20T04:15:19.221Z,99.90
2022-10-20T04:17:47.228Z,99.90
2022-10-20T04:20:14.592Z,99.90
2022-10-20T04:22:41.984Z,99.90
2022-10-20T04:25:09.948Z,99.90
2022-10-20T04:27:37.829Z,99.90
2022-10-20T04:30:06.238Z,99.90
2022-10-20T04:32:34.056Z,99.90
2022-10-20T04:35:01.565Z,99.90
2022-10-20T04:37:29.017Z,99.90
2022-10-20T04:39:57.793Z,99.90
2022-10-20T04:42:25.344Z,99.90
2022-10-20T04:44:52.793Z,99.90
2022-10-20T04:47:20.339Z,99.90
2022-10-20T04:49:47.837Z,99.90
2022-10-20T04:52:15.261Z,99.90
2022-10-20T04:54:42.664Z,99.90
2022-10-20T04:57:10.944Z,99.90
2022-10-20T04:59:38.328Z,99.90
2022-10-20T05:02:05.750Z,99.90
2022-10-20T05:04:33.160Z,99.90
2022-10-20T05:07:00.499Z,99.90
2022-10-20T05:09:27.936Z,99.90
2022-10-20T05:11:55.348Z,99.90
2022-10-20T05:14:22.892Z,99.90
2022-10-20T05:16:50.490Z,99.90
2022-10-20T05:19:18.444Z,99.90
2022-10-20T05:21:45.938Z,99.90
2022-10-20T05:24:20.820Z,99.90
2022-10-20T05:26:49.570Z,99.90
2022-10-20T05:29:16.956Z,99.90
2022-10-20T05:31:44.414Z,99.90
2022-10-20T05:34:12.423Z,99.90
2022-10-20T05:36:39.800Z,99.90
2022-10-20T05:39:07.191Z,99.90
2022-10-20T05:41:38.015Z,99.90
2022-10-20T05:44:11.135Z,99.90
2022-10-20T05:46:41.425Z,99.90
2022-10-20T05:49:17.471Z,99.90
2022-10-20T05:51:46.664Z,99.90
2022-10-20T05:54:14.764Z,99.90
2022-10-20T05:56:42.550Z,99.90
2022-10-20T05:59:10.781Z,99.90
2022-10-20T06:01:41.208Z,99.90
2022-10-20T06:04:08.816Z,99.90
2022-10-20T06:06:36.555Z,99.90
2022-10-20T06:09:06.802Z,99.90
2022-10-20T06:11:38.344Z,99.90
2022-10-20T06:14:08.785Z,99.90
2022-10-20T06:16:36.894Z,99.90
2022-10-20T06:19:05.264Z,99.90
2022-10-20T06:21:34.055Z,99.90
2022-10-20T06:24:04.696Z,99.90
2022-10-20T06:26:33.971Z,99.90
2022-10-20T06:29:04.749Z,99.90
2022-10-20T06:31:33.897Z,99.90
2022-10-20T06:34:01.756Z,99.90
2022-10-20T06:36:29.246Z,99.90
2022-10-20T06:38:59.501Z,99.90
2022-10-20T06:41:27.877Z,99.90
2022-10-20T06:43:59.018Z,99.90
2022-10-20T06:46:29.130Z,99.90
2022-10-20T06:48:58.759Z,99.90
2022-10-20T06:51:27.262Z,99.90
2022-10-20T06:53:54.659Z,99.90
2022-10-20T06:56:24.365Z,99.90
2022-10-20T06:58:53.894Z,99.90
2022-10-20T07:01:25.431Z,99.90
2022-10-20T07:03:58.086Z,99.90
2022-10-20T07:06:31.465Z,99.90
2022-10-20T07:08:59.317Z,99.90
2022-10-20T07:11:31.268Z,99.90
2022-10-20T07:13:59.601Z,99.90
2022-10-20T07:16:30.056Z,99.90
2022-10-20T07:18:57.991Z,99.90
2022-10-20T07:21:32.413Z,99.90
2022-10-20T07:24:05.401Z,99.90
2022-10-20T07:26:39.581Z,99.90
2022-10-20T07:29:07.349Z,99.90
2022-10-20T07:31:39.429Z,99.90
2022-10-20T07:34:26.307Z,99.90
2022-10-20T07:36:56.172Z,99.90
2022-10-20T07:39:24.067Z,99.90
2022-10-20T07:41:51.953Z,99.90
2022-10-20T07:44:19.745Z,99.90
2022-10-20T07:46:47.336Z,99.90
2022-10-20T07:52:02.362Z,99.90
2022-10-20T07:54:29.798Z,99.90
2022-10-20T07:56:57.366Z,99.90
2022-10-20T07:59:24.946Z,99.90
2022-10-20T08:01:55.981Z,99.90
2022-10-20T08:04:26.209Z,99.90
2022-10-20T08:06:53.665Z,99.90
2022-10-20T08:09:21.014Z,99.90
2022-10-20T08:11:51.449Z,99.90
2022-10-20T08:14:22.003Z,99.90
2022-10-20T08:16:53.611Z,99.90
2022-10-20T08:19:25.331Z,99.90
2022-10-20T08:21:52.834Z,99.90
2022-10-20T08:24:20.423Z,99.90
2022-10-20T08:26:48.143Z,99.90
2022-10-20T08:29:15.543Z,99.90
2022-10-20T08:31:44.556Z,99.90
2022-10-20T08:34:12.208Z,99.90
2022-10-20T08:36:39.867Z,99.90
2022-10-20T08:39:07.320Z,99.90
2022-10-20T08:42:07.054Z,99.90
2022-10-20T08:44:36.250Z,99.90
2022-10-20T08:47:12.675Z,99.90
2022-10-20T08:49:40.273Z,99.90
2022-10-20T08:52:15.002Z,99.90
2022-10-20T08:54:43.066Z,99.90
2022-10-20T08:57:26.393Z,99.90
2022-10-20T08:59:59.204Z,99.90
2022-10-20T09:02:27.011Z,99.90
2022-10-20T09:04:59.584Z,99.90
2022-10-20T09:07:49.991Z,99.90
2022-10-20T09:10:38.562Z,99.90
2022-10-20T09:13:15.319Z,99.90
2022-10-20T09:15:43.084Z,99.90
2022-10-20T09:18:14.308Z,99.90
2022-10-20T09:20:53.510Z,99.90
2022-10-20T09:23:41.806Z,99.90
2022-10-20T09:26:37.487Z,99.90
2022-10-20T09:29:15.250Z,99.90
2022-10-20T09:31:49.515Z,99.90
2022-10-20T09:34:31.835Z,99.90
2022-10-20T09:37:11.679Z,99.90
2022-10-20T09:39:47.718Z,99.90
2022-10-20T09:42:25.460Z,99.90
2022-10-20T09:44:57.566Z,99.90
2022-10-20T09:47:27.190Z,99.90
2022-10-20T09:50:17.616Z,99.90
2022-10-20T09:52:48.882Z,99.90
2022-10-20T09:55:33.048Z,99.90
2022-10-20T09:58:03.110Z,99.90
2022-10-20T10:00:40.286Z,99.90
2022-10-20T10:03:25.244Z,99.90
2022-10-20T10:05:54.303Z,99.90
2022-10-20T10:08:23.692Z,99.90
2022-10-20T10:11:19.066Z,99.90
2022-10-20T10:13:51.585Z,99.90
2022-10-20T10:16:26.297Z,99.90
2022-10-20T10:19:01.952Z,99.90
2022-10-20T10:21:41.914Z,99.90
2022-10-20T10:24:25.143Z,99.90
2022-10-20T10:26:54.689Z,99.90
2022-10-20T10:29:26.766Z,99.90
2022-10-20T10:32:00.708Z,99.90
2022-10-20T10:34:50.217Z,99.90
2022-10-20T10:37:18.423Z,99.90
2022-10-20T10:39:46.342Z,99.90
2022-10-20T10:42:21.335Z,99.90
2022-10-20T10:44:55.437Z,99.90
2022-10-20T10:47:27.759Z,99.90
2022-10-20T10:50:20.132Z,99.90
2022-10-20T10:53:03.640Z,99.90
2022-10-20T10:55:54.774Z,99.90
2022-10-20T10:58:24.908Z,99.90
2022-10-20T11:01:07.268Z,99.90
2022-10-20T11:04:05.255Z,99.90
2022-10-20T11:06:54.276Z,99.90
2022-10-20T11:09:41.669Z,99.90
2022-10-20T11:12:24.193Z,99.90
2022-10-20T11:15:03.408Z,99.90
2022-10-20T11:17:58.391Z,99.90
2022-10-20T11:20:44.662Z,99.90
2022-10-20T11:23:24.477Z,99.90
2022-10-20T11:26:12.308Z,99.90
2022-10-20T11:28:45.306Z,99.90
2022-10-20T11:31:24.676Z,99.90
2022-10-20T11:34:10.493Z,99.90
2022-10-20T11:36:43.169Z,99.90
2022-10-20T11:39:18.302Z,99.90
2022-10-20T11:41:50.082Z,99.90
2022-10-20T11:44:33.460Z,99.90
2022-10-20T11:47:11.936Z,99.90
2022-10-20T11:49:41.123Z,99.90
2022-10-20T11:52:42.544Z,99.90
2022-10-20T11:55:26.217Z,99.90
2022-10-20T11:58:22.309Z,99.90
2022-10-20T12:01:24.323Z,99.90
2022-10-20T12:04:28.586Z,99.90
2022-10-20T12:07:30.541Z,99.90
2022-10-20T12:10:27.382Z,99.90
2022-10-20T12:13:20.005Z,99.90
2022-10-20T12:15:52.752Z,99.90
2022-10-20T12:18:26.577Z,99.90
2022-10-20T12:21:03.764Z,99.90
2022-10-20T12:23:45.932Z,99.90
2022-10-20T12:26:42.499Z,99.90
2022-10-20T12:29:30.737Z,99.90
2022-10-20T12:32:29.085Z,99.90
2022-10-20T12:34:58.975Z,99.90
2022-10-20T12:37:38.530Z,99.90
2022-10-20T12:40:06.684Z,99.90
2022-10-20T12:42:38.653Z,99.90
2022-10-20T12:45:23.951Z,99.90
2022-10-20T12:47:56.838Z,99.90
2022-10-20T12:50:45.238Z,99.90
2022-10-20T12:53:15.778Z,99.90
2022-10-20T12:55:46.722Z,99.90
2022-10-20T12:58:17.187Z,99.90
2022-10-20T13:00:47.537Z,99.90
2022-10-20T13:03:46.559Z,99.90
2022-10-20T13:06:22.801Z,99.90
2022-10-20T13:09:10.215Z,99.90
2022-10-20T13:11:37.933Z,99.90
2022-10-20T13:14:12.926Z,99.90
2022-10-20T13:17:00.759Z,99.90
2022-10-20T13:19:42.887Z,99.90
2022-10-20T13:22:47.355Z,99.90
2022-10-20T13:25:18.486Z,99.90
2022-10-20T13:27:49.023Z,99.90
2022-10-20T13:30:22.364Z,99.90
2022-10-20T13:33:25.416Z,99.90
2022-10-20T13:35:56.599Z,99.90
2022-10-20T13:38:31.208Z,99.90
2022-10-20T13:41:04.280Z,99.90
2022-10-20T13:43:41.829Z,99.90
2022-10-20T13:46:27.687Z,99.90
2022-10-20T13:49:19.819Z,99.90
2022-10-20T13:51:55.173Z,99.90
2022-10-20T13:54:30.008Z,99.90
2022-10-20T13:56:58.426Z,99.90
2022-10-20T13:59:28.108Z,99.90
2022-10-20T14:02:03.700Z,99.90
2022-10-20T14:04:34.028Z,99.90
2022-10-20T14:07:13.348Z,99.90
2022-10-20T14:09:46.676Z,99.90
2022-10-20T14:12:25.342Z,99.90
2022-10-20T14:15:01.521Z,99.50
2022-10-20T14:17:29.629Z,98.90
2022-10-20T14:20:18.920Z,99.00
2022-10-20T14:22:47.288Z,98.10
2022-10-20T14:25:15.634Z,98.20
2022-10-20T14:27:43.294Z,97.30
2022-10-20T14:30:16.965Z,97.00
2022-10-20T14:32:46.291Z,96.50
2022-10-20T14:35:28.913Z,96.10
2022-10-20T14:38:09.725Z,95.80
2022-10-20T14:40:38.280Z,95.40
2022-10-20T14:43:40.256Z,94.10
2022-10-20T14:46:12.715Z,93.10
2022-10-20T14:48:49.655Z,92.80
2022-10-20T14:51:43.941Z,92.30
2022-10-20T14:54:20.742Z,92.20
2022-10-20T14:56:54.749Z,92.10
2022-10-20T14:59:34.126Z,92.00
2022-10-20T15:02:18.623Z,91.80
2022-10-20T15:04:53.109Z,91.70
2022-10-20T15:07:27.468Z,91.80
2022-10-20T15:10:05.651Z,91.20
2022-10-20T15:12:36.329Z,91.10
2022-10-20T15:15:06.997Z,90.70
2022-10-20T15:17:46.101Z,91.40
2022-10-20T15:20:34.437Z,91.00
2022-10-20T15:23:12.050Z,90.60
2022-10-20T15:25:45.338Z,90.50
2022-10-20T15:28:38.909Z,90.40
2022-10-20T15:31:22.860Z,90.60
2022-10-20T15:33:51.601Z,90.10
2022-10-20T15:36:28.528Z,90.10
2022-10-20T15:38:56.583Z,90.10
2022-10-20T15:41:27.018Z,90.70
2022-10-20T15:43:54.460Z,90.30
2022-10-20T15:46:22.610Z,90.50
2022-10-20T15:48:49.994Z,90.70
2022-10-20T15:51:29.094Z,90.50
2022-10-20T15:53:57.394Z,90.60
2022-10-20T15:56:25.313Z,90.90
2022-10-20T15:58:53.847Z,91.20
2022-10-20T16:01:22.187Z,91.40
2022-10-20T16:03:50.281Z,91.60
2022-10-20T16:06:18.854Z,91.80
2022-10-20T16:08:48.385Z,92.10
2022-10-20T16:11:17.799Z,92.20
2022-10-20T16:13:45.441Z,92.40
2022-10-20T16:16:15.025Z,92.60
2022-10-20T16:18:42.663Z,93.00
2022-10-20T16:21:10.238Z,93.00
2022-10-20T16:23:42.201Z,93.20
2022-10-20T16:26:12.057Z,93.40
2022-10-20T16:28:39.795Z,93.70
2022-10-20T16:31:11.963Z,94.00
2022-10-20T16:33:39.576Z,94.10
2022-10-20T16:36:09.690Z,94.30
2022-10-20T16:38:39.997Z,94.50
2022-10-20T16:41:10.989Z,94.70
2022-10-20T16:43:40.203Z,94.90
2022-10-20T16:46:09.336Z,95.10
2022-10-20T16:48:38.984Z,95.30
2022-10-20T16:51:10.146Z,95.50
2022-10-20T16:53:37.921Z,95.70
2022-10-20T16:56:06.193Z,95.80
2022-10-20T16:58:33.761Z,95.90
2022-10-20T17:01:10.879Z,96.10
2022-10-20T17:06:12.707Z,96.50
2022-10-20T17:08:40.903Z,96.70
2022-10-20T17:11:14.839Z,96.70
2022-10-20T17:13:42.862Z,96.90
2022-10-20T17:16:16.639Z,97.00
2022-10-20T17:18:44.215Z,97.20
2022-10-20T17:21:12.794Z,97.40
2022-10-20T17:23:42.805Z,97.50
2022-10-20T17:26:16.423Z,97.50
2022-10-20T17:28:44.298Z,97.70
2022-10-20T17:33:47.550Z,98.10
2022-10-20T17:36:15.611Z,98.20
2022-10-20T17:38:43.434Z,98.30
2022-10-20T17:41:15.487Z,98.40
2022-10-20T17:43:42.898Z,98.60
2022-10-20T17:46:13.193Z,98.70
2022-10-20T17:48:41.306Z,98.90
2022-10-20T17:51:12.383Z,98.90
2022-10-20T17:53:43.558Z,99.00
2022-10-20T17:56:28.879Z,99.10
2022-10-20T17:58:57.262Z,99.30
2022-10-20T18:01:30.859Z,99.30
2022-10-20T18:04:03.641Z,99.50
2022-10-20T18:06:34.856Z,99.50
2022-10-20T18:09:10.788Z,99.70
2022-10-20T18:11:41.514Z,99.80
2022-10-20T18:14:09.017Z,99.90
2022-10-20T18:16:37.957Z,99.90
2022-10-20T18:19:07.006Z,99.90
2022-10-20T18:21:34.561Z,99.90
2022-10-20T18:24:05.561Z,99.90
2022-10-20T18:26:34.497Z,99.90
2022-10-20T18:29:02.701Z,99.90
2022-10-20T18:31:32.887Z,99.90
2022-10-20T18:34:04.355Z,99.90
2022-10-20T18:36:37.046Z,99.90
2022-10-20T18:39:07.523Z,99.90
2022-10-20T18:41:38.226Z,99.90
2022-10-20T18:44:09.279Z,99.90
2022-10-20T18:46:37.821Z,99.90
2022-10-20T18:49:07.295Z,99.90
2022-10-20T18:51:35.965Z,99.90
2022-10-20T18:54:04.649Z,99.90
2022-10-20T18:56:32.177Z,99.90
2022-10-20T18:59:02.209Z,99.90
2022-10-20T19:01:35.238Z,99.90
2022-10-20T19:04:04.415Z,99.90
2022-10-20T19:06:34.297Z,99.90
2022-10-20T19:09:05.429Z,99.90
2022-10-20T19:11:35.602Z,99.90
2022-10-20T19:14:03.352Z,99.90
2022-10-20T19:16:32.909Z,99.90
2022-10-20T19:19:02.754Z,99.90
2022-10-20T19:21:31.365Z,99.90
2022-10-20T19:24:08.227Z,99.90
2022-10-20T19:26:39.370Z,99.90
2022-10-20T19:29:12.757Z,99.90
2022-10-20T19:31:52.863Z,99.90
2022-10-20T19:34:26.192Z,99.90
2022-10-20T19:36:54.616Z,99.90
2022-10-20T19:39:27.029Z,99.90
2022-10-20T19:41:56.239Z,99.90
2022-10-20T19:44:24.167Z,99.90
2022-10-20T19:46:52.545Z,99.90
2022-10-20T19:49:21.687Z,99.90
2022-10-20T19:51:49.313Z,99.90
2022-10-20T19:54:17.393Z,99.90
2022-10-20T19:56:44.895Z,99.90
2022-10-20T19:59:12.689Z,99.90
2022-10-20T20:01:40.285Z,99.90
2022-10-20T20:04:08.028Z,99.90
2022-10-20T20:06:36.645Z,99.90
2022-10-20T20:09:07.432Z,99.90
2022-10-20T20:11:37.517Z,99.90
2022-10-20T20:14:13.052Z,99.90
2022-10-20T20:16:46.699Z,99.90
2022-10-20T20:19:41.476Z,99.90
2022-10-20T20:22:17.367Z,99.90
2022-10-20T20:24:50.468Z,99.90
2022-10-20T20:27:29.913Z,99.90
2022-10-20T20:30:02.243Z,99.90
2022-10-20T20:32:30.702Z,99.90
2022-10-20T20:34:59.079Z,99.90
2022-10-20T20:37:30.214Z,99.90
2022-10-20T20:39:57.544Z,99.90
2022-10-20T20:42:24.935Z,99.90
2022-10-20T20:44:53.068Z,99.90
2022-10-20T20:47:20.492Z,99.90
2022-10-20T20:49:47.900Z,99.90
2022-10-20T20:52:15.285Z,99.90
2022-10-20T20:54:42.626Z,99.90
2022-10-20T20:57:10.075Z,99.90
2022-10-20T20:59:37.642Z,99.90
2022-10-20T21:02:05.187Z,99.90
2022-10-20T21:04:32.625Z,99.90
2022-10-20T21:07:02.502Z,99.90
2022-10-20T21:09:30.671Z,99.90
2022-10-20T21:11:58.204Z,99.90
2022-10-20T21:14:25.837Z,99.90
2022-10-20T21:16:53.369Z,99.90
2022-10-20T21:19:20.867Z,99.90
2022-10-20T21:21:57.318Z,99.90
2022-10-20T21:24:26.545Z,99.90
2022-10-20T21:26:54.162Z,99.90
2022-10-20T21:29:21.807Z,99.90
2022-10-20T21:31:49.368Z,99.90
2022-10-20T21:34:16.912Z,99.90
2022-10-20T21:36:44.258Z,99.90
2022-10-20T21:39:17.072Z,99.90
2022-10-20T21:41:45.431Z,99.90
2022-10-20T21:44:14.158Z,99.90
2022-10-20T21:46:49.247Z,99.90
2022-10-20T21:49:21.631Z,99.90
2022-10-20T21:51:52.992Z,99.90
2022-10-20T21:54:26.375Z,99.90
2022-10-20T21:56:55.317Z,99.90
2022-10-20T21:59:28.552Z,99.90
2022-10-20T22:01:58.841Z,99.90
2022-10-20T22:04:28.761Z,99.90
2022-10-20T22:06:56.878Z,99.90
2022-10-20T22:09:24.341Z,99.90
2022-10-20T22:11:56.581Z,99.90
2022-10-20T22:14:24.283Z,99.90
2022-10-20T22:16:51.862Z,99.90
2022-10-20T22:19:21.529Z,99.90
2022-10-20T22:21:51.495Z,99.90
2022-10-20T22:24:20.129Z,99.90
2022-10-20T22:26:49.417Z,99.90
2022-10-20T22:29:17.618Z,99.90
2022-10-20T22:31:45.025Z,99.90
2022-10-20T22:34:12.933Z,99.90
2022-10-20T22:36:40.810Z,99.90
2022-10-20T22:39:08.884Z,99.90
2022-10-20T22:41:36.712Z,99.90
2022-10-20T22:44:04.691Z,99.90
2022-10-20T22:46:32.528Z,99.90
2022-10-20T22:48:59.877Z,99.90
2022-10-20T22:51:27.296Z,99.90
2022-10-20T22:53:54.819Z,99.90
2022-10-20T22:56:23.576Z,99.90
2022-10-20T22:58:53.290Z,99.90
2022-10-20T23:01:22.493Z,99.90
2022-10-20T23:03:50.842Z,99.90
2022-10-20T23:06:21.734Z,99.90
2022-10-20T23:08:51.796Z,99.90
2022-10-20T23:11:20.558Z,99.90
2022-10-20T23:13:51.354Z,99.90
2022-10-20T23:16:20.669Z,99.90
2022-10-20T23:18:48.253Z,99.90
2022-10-20T23:21:15.987Z,99.90
2022-10-20T23:23:44.916Z,99.90
2022-10-20T23:26:13.057Z,99.90
2022-10-20T23:28:40.613Z,99.90
2022-10-20T23:31:10.772Z,99.90
2022-10-20T23:33:39.687Z,99.90
2022-10-20T23:36:07.634Z,99.90
2022-10-20T23:38:35.134Z,99.90
2022-10-20T23:41:03.162Z,99.90
2022-10-20T23:43:31.237Z,99.90
2022-10-20T23:45:59.033Z,99.90
2022-10-20T23:48:26.962Z,99.90
2022-10-20T23:50:54.457Z,99.90
2022-10-20T23:53:22.161Z,99.90
2022-10-20T23:55:53.163Z,99.90
2022-10-20T23:58:22.529Z,99.90
